createdAt,value
2023-08-05T00:01:41.975Z,4.10
2023-08-05T00:04:08.333Z,4.15
2023-08-05T00:06:34.651Z,4.07
2023-08-05T00:09:00.995Z,3.95
2023-08-05T00:11:27.366Z,3.80
2023-08-05T00:13:53.658Z,3.88
2023-08-05T00:16:19.992Z,4.43
2023-08-05T00:18:46.325Z,4.15
2023-08-05T00:21:12.585Z,3.78
2023-08-05T00:23:38.854Z,4.10
2023-08-05T00:26:05.207Z,3.90
2023-08-05T00:28:31.565Z,4.20
2023-08-05T00:30:57.836Z,4.57
2023-08-05T00:33:24.114Z,4.25
2023-08-05T00:35:50.405Z,3.95
2023-08-05T00:38:16.786Z,4.00
2023-08-05T00:40:44.395Z,4.82
2023-08-05T00:43:10.787Z,4.22
2023-08-05T00:45:37.746Z,4.53
2023-08-05T00:48:04.205Z,4.65
2023-08-05T00:50:32.256Z,4.57
2023-08-05T00:52:59.080Z,4.53
2023-08-05T00:55:25.421Z,4.65
2023-08-05T00:57:52.385Z,4.53
2023-08-05T01:00:18.719Z,4.57
2023-08-05T01:02:45.004Z,4.85
2023-08-05T01:05:11.465Z,4.63
2023-08-05T01:07:38.529Z,4.70
2023-08-05T01:10:05.364Z,5.07
2023-08-05T01:12:31.754Z,5.25
2023-08-05T01:14:58.119Z,4.30
2023-08-05T01:17:24.463Z,4.55
2023-08-05T01:19:51.716Z,4.57
2023-08-05T01:22:36.857Z,4.35
2023-08-05T01:25:03.406Z,4.82
2023-08-05T01:27:30.436Z,4.63
2023-08-05T01:29:56.803Z,4.50
2023-08-05T01:32:23.404Z,4.45
2023-08-05T01:34:50.339Z,4.97
2023-08-05T01:37:17.036Z,4.88
2023-08-05T01:39:43.393Z,4.72
2023-08-05T01:42:09.821Z,5.00
2023-08-05T01:44:36.246Z,5.35
2023-08-05T01:47:02.660Z,5.80
2023-08-05T01:49:29.112Z,5.05
2023-08-05T01:51:55.378Z,5.15
2023-08-05T01:54:21.767Z,4.43
2023-08-05T01:56:48.384Z,4.40
2023-08-05T01:59:14.917Z,4.28
2023-08-05T02:01:42.074Z,4.78
2023-08-05T02:04:08.410Z,5.32
2023-08-05T02:06:34.919Z,4.90
2023-08-05T02:09:01.194Z,5.05
2023-08-05T02:11:27.576Z,5.22
2023-08-05T02:13:53.882Z,4.45
2023-08-05T02:16:20.370Z,4.95
2023-08-05T02:18:46.747Z,5.10
2023-08-05T02:21:13.084Z,5.57
2023-08-05T02:23:39.434Z,5.47
2023-08-05T02:26:05.729Z,4.68
2023-08-05T02:28:32.022Z,5.03
2023-08-05T02:30:58.427Z,5.00
2023-08-05T02:33:24.820Z,4.25
2023-08-05T02:35:56.778Z,4.90
2023-08-05T02:38:23.086Z,4.80
2023-08-05T02:40:49.333Z,4.85
2023-08-05T02:43:15.601Z,4.55
2023-08-05T02:45:44.059Z,4.80
2023-08-05T02:48:10.418Z,4.55
2023-08-05T02:50:36.779Z,4.70
2023-08-05T02:53:03.075Z,5.03
2023-08-05T02:55:29.373Z,4.97
2023-08-05T02:57:55.691Z,4.97
2023-08-05T03:00:22.050Z,5.15
2023-08-05T03:02:48.752Z,4.68
2023-08-05T03:05:15.204Z,5.53
2023-08-05T03:07:41.562Z,5.57
2023-08-05T03:10:08.112Z,5.53
2023-08-05T03:12:34.974Z,6.10
2023-08-05T03:15:01.294Z,5.53
2023-08-05T03:17:27.579Z,5.68
2023-08-05T03:19:53.894Z,6.00
2023-08-05T03:22:20.283Z,5.07
2023-08-05T03:24:46.608Z,4.90
2023-08-05T03:27:12.949Z,4.97
2023-08-05T03:29:39.316Z,4.78
2023-08-05T03:32:05.795Z,4.72
2023-08-05T03:34:32.114Z,5.55
2023-08-05T03:36:58.412Z,4.55
2023-08-05T03:39:24.902Z,4.65
2023-08-05T03:41:51.256Z,4.85
2023-08-05T03:44:17.649Z,5.07
2023-08-05T03:46:45.447Z,4.78
2023-08-05T03:49:11.776Z,4.90
2023-08-05T03:51:38.104Z,5.20
2023-08-05T03:54:04.426Z,5.32
2023-08-05T03:56:31.316Z,5.00
2023-08-05T03:58:58.247Z,4.25
2023-08-05T04:01:24.708Z,4.70
2023-08-05T04:03:51.369Z,4.75
2023-08-05T04:06:20.217Z,4.70
2023-08-05T04:08:46.567Z,5.20
2023-08-05T04:11:12.912Z,4.72
2023-08-05T04:13:40.433Z,5.40
2023-08-05T04:16:08.047Z,4.90
2023-08-05T04:18:35.557Z,5.35
2023-08-05T04:21:04.402Z,5.30
2023-08-05T04:23:32.337Z,4.93
2023-08-05T04:26:02.324Z,5.32
2023-08-05T04:28:28.592Z,5.70
2023-08-05T04:30:54.944Z,5.13
2023-08-05T04:33:21.292Z,4.50
2023-08-05T04:35:48.149Z,5.05
2023-08-05T04:38:14.813Z,4.53
2023-08-05T04:40:41.187Z,4.93
2023-08-05T04:43:07.498Z,5.10
2023-08-05T04:45:33.855Z,5.07
2023-08-05T04:48:00.290Z,4.93
2023-08-05T04:50:26.841Z,5.35
2023-08-05T04:52:53.191Z,5.40
2023-08-05T04:55:19.684Z,5.20
2023-08-05T04:57:47.656Z,5.78
2023-08-05T05:00:14.054Z,5.03
2023-08-05T05:02:40.398Z,4.75
2023-08-05T05:05:06.975Z,5.40
2023-08-05T05:07:33.256Z,5.13
2023-08-05T05:10:00.136Z,4.70
2023-08-05T05:12:26.497Z,4.93
2023-08-05T05:14:53.030Z,5.28
2023-08-05T05:17:19.488Z,5.03
2023-08-05T05:19:45.772Z,4.80
2023-08-05T05:22:16.595Z,5.10
2023-08-05T05:24:42.880Z,5.60
2023-08-05T05:27:10.282Z,4.65
2023-08-05T05:29:36.626Z,4.95
2023-08-05T05:32:02.985Z,5.22
2023-08-05T05:34:29.299Z,5.38
2023-08-05T05:36:55.575Z,5.88
2023-08-05T05:39:21.884Z,4.72
2023-08-05T05:41:48.173Z,5.20
2023-08-05T05:44:14.630Z,5.32
2023-08-05T05:46:41.054Z,5.53
2023-08-05T05:49:07.881Z,5.22
2023-08-05T05:51:35.623Z,5.60
2023-08-05T05:54:01.936Z,5.25
2023-08-05T05:56:28.194Z,5.78
2023-08-05T05:58:55.548Z,5.57
2023-08-05T06:01:24.350Z,5.97
2023-08-05T06:03:51.407Z,5.78
2023-08-05T06:06:17.967Z,7.15
2023-08-05T06:08:44.468Z,6.78
2023-08-05T06:11:11.682Z,5.88
2023-08-05T06:13:38.343Z,7.10
2023-08-05T06:16:05.160Z,6.55
2023-08-05T06:18:31.519Z,7.10
2023-08-05T06:20:57.820Z,7.07
2023-08-05T06:23:24.114Z,7.57
2023-08-05T06:25:50.387Z,7.93
2023-08-05T06:28:16.791Z,7.85
2023-08-05T06:30:46.894Z,7.47
2023-08-05T06:33:13.609Z,7.43
2023-08-05T06:35:40.629Z,7.93
2023-08-05T06:38:06.928Z,7.95
2023-08-05T06:40:33.387Z,7.78
2023-08-05T06:42:59.697Z,8.30
2023-08-05T06:45:26.090Z,7.63
2023-08-05T06:47:52.370Z,7.57
2023-08-05T06:50:18.670Z,7.82
2023-08-05T06:52:45.006Z,7.55
2023-08-05T06:55:11.337Z,7.80
2023-08-05T06:57:37.715Z,7.13
2023-08-05T07:00:04.202Z,7.25
2023-08-05T07:02:30.567Z,6.65
2023-08-05T07:04:56.913Z,5.70
2023-08-05T07:07:23.254Z,6.18
2023-08-05T07:09:49.560Z,5.82
2023-08-05T07:12:15.913Z,5.70
2023-08-05T07:14:45.641Z,6.13
2023-08-05T07:17:11.980Z,6.00
2023-08-05T07:19:38.321Z,6.97
2023-08-05T07:22:04.779Z,6.18
2023-08-05T07:24:31.193Z,5.78
2023-08-05T07:26:57.568Z,5.63
2023-08-05T07:29:24.029Z,5.35
2023-08-05T07:31:50.738Z,5.35
2023-08-05T07:34:17.334Z,5.07
2023-08-05T07:36:47.146Z,4.88
2023-08-05T07:39:13.558Z,5.22
2023-08-05T07:41:39.995Z,5.20
2023-08-05T07:44:08.820Z,5.60
2023-08-05T07:46:38.050Z,5.63
2023-08-05T07:49:04.969Z,5.20
2023-08-05T07:51:31.704Z,5.18
2023-08-05T07:53:58.873Z,4.45
2023-08-05T07:56:25.467Z,4.40
2023-08-05T07:58:52.202Z,4.82
2023-08-05T08:01:20.891Z,4.10
2023-08-05T08:03:47.592Z,4.70
2023-08-05T08:06:18.255Z,4.65
2023-08-05T08:08:46.328Z,4.22
2023-08-05T08:11:13.062Z,4.53
2023-08-05T08:13:39.548Z,4.43
2023-08-05T08:16:06.058Z,3.92
2023-08-05T08:18:32.391Z,3.58
2023-08-05T08:20:58.740Z,3.72
2023-08-05T08:23:25.862Z,3.90
2023-08-05T08:25:52.176Z,4.05
2023-08-05T08:28:18.534Z,3.65
2023-08-05T08:30:57.798Z,3.45
2023-08-05T08:33:25.166Z,3.55
2023-08-05T08:35:51.923Z,3.78
2023-08-05T08:38:18.656Z,3.85
2023-08-05T08:40:48.773Z,3.35
2023-08-05T08:43:17.614Z,3.50
2023-08-05T08:45:44.898Z,3.50
2023-08-05T08:48:11.932Z,3.22
2023-08-05T08:50:39.506Z,3.38
2023-08-05T08:53:07.832Z,3.30
2023-08-05T08:55:34.412Z,3.53
2023-08-05T08:58:00.721Z,3.83
2023-08-05T09:00:27.244Z,3.70
2023-08-05T09:02:54.088Z,3.45
2023-08-05T09:05:20.508Z,3.20
2023-08-05T09:07:47.250Z,7.15
2023-08-05T09:10:14.218Z,3.70
2023-08-05T09:12:40.973Z,5.35
2023-08-05T09:15:08.321Z,3.55
2023-08-05T09:17:38.844Z,4.03
2023-08-05T09:20:12.368Z,3.63
2023-08-05T09:22:38.682Z,3.95
2023-08-05T09:25:06.879Z,3.10
2023-08-05T09:27:48.206Z,2.75
2023-08-05T09:30:18.246Z,3.20
2023-08-05T09:32:46.046Z,3.22
2023-08-05T09:35:12.692Z,2.67
2023-08-05T09:37:42.016Z,2.60
2023-08-05T09:40:18.616Z,2.80
2023-08-05T09:42:48.866Z,2.33
2023-08-05T09:45:17.065Z,2.83
2023-08-05T09:47:43.949Z,3.10
2023-08-05T09:50:14.457Z,3.30
2023-08-05T09:52:41.261Z,2.27
2023-08-05T09:55:14.917Z,2.80
2023-08-05T09:57:42.827Z,3.20
2023-08-05T10:00:13.263Z,3.03
2023-08-05T10:02:46.104Z,3.15
2023-08-05T10:05:13.525Z,3.30
2023-08-05T10:07:43.619Z,2.60
2023-08-05T10:10:12.780Z,2.88
2023-08-05T10:12:44.431Z,3.25
2023-08-05T10:15:12.924Z,3.35
2023-08-05T10:17:40.777Z,3.10
2023-08-05T10:20:08.669Z,3.20
2023-08-05T10:22:34.997Z,3.08
2023-08-05T10:25:01.998Z,2.90
2023-08-05T10:27:37.787Z,2.58
2023-08-05T10:30:22.046Z,3.20
2023-08-05T10:32:52.390Z,2.40
2023-08-05T10:35:25.014Z,2.67
2023-08-05T10:37:51.407Z,2.70
2023-08-05T10:40:36.421Z,2.70
2023-08-05T10:43:02.747Z,2.83
2023-08-05T10:45:29.038Z,2.10
2023-08-05T10:47:55.402Z,2.40
2023-08-05T10:50:21.732Z,2.13
2023-08-05T10:52:50.374Z,2.10
2023-08-05T10:55:16.675Z,2.97
2023-08-05T10:57:42.965Z,2.67
2023-08-05T11:00:17.920Z,2.53
2023-08-05T11:02:44.618Z,2.30
2023-08-05T11:05:11.352Z,2.03
2023-08-05T11:07:38.293Z,2.35
2023-08-05T11:10:05.684Z,1.85
2023-08-05T11:12:32.078Z,2.20
2023-08-05T11:14:59.772Z,2.08
2023-08-05T11:17:26.218Z,2.47
2023-08-05T11:19:53.483Z,2.03
2023-08-05T11:22:24.417Z,2.25
2023-08-05T11:25:00.193Z,3.10
2023-08-05T11:27:30.555Z,2.40
2023-08-05T11:30:03.193Z,2.10
2023-08-05T11:32:30.257Z,2.05
2023-08-05T11:35:03.035Z,2.10
2023-08-05T11:37:35.010Z,2.22
2023-08-05T11:40:01.805Z,3.60
2023-08-05T11:42:28.160Z,2.30
2023-08-05T11:44:54.566Z,6.82
2023-08-05T11:47:20.902Z,7.40
2023-08-05T11:49:55.719Z,2.80
2023-08-05T11:52:22.109Z,2.60
2023-08-05T11:54:59.115Z,2.17
2023-08-05T11:57:26.145Z,2.28
2023-08-05T11:59:53.016Z,2.00
2023-08-05T12:02:19.918Z,1.48
2023-08-05T12:04:49.223Z,2.00
2023-08-05T12:07:16.429Z,1.70
2023-08-05T12:09:43.483Z,1.75
2023-08-05T12:12:17.030Z,1.70
2023-08-05T12:14:43.471Z,2.05
2023-08-05T12:17:09.775Z,1.60
2023-08-05T12:19:36.084Z,1.80
2023-08-05T12:22:02.413Z,1.75
2023-08-05T12:24:28.718Z,1.80
2023-08-05T12:26:55.070Z,1.50
2023-08-05T12:29:21.726Z,1.83
2023-08-05T12:31:48.078Z,1.83
2023-08-05T12:34:14.461Z,2.20
2023-08-05T12:36:40.832Z,2.08
2023-08-05T12:39:08.843Z,1.67
2023-08-05T12:41:35.222Z,1.90
2023-08-05T12:44:02.350Z,2.10
2023-08-05T12:46:28.867Z,2.83
2023-08-05T12:48:55.284Z,2.38
2023-08-05T12:51:21.636Z,2.30
2023-08-05T12:53:47.988Z,2.20
2023-08-05T12:56:15.620Z,3.30
2023-08-05T12:58:41.980Z,2.53
2023-08-05T13:01:08.546Z,2.83
2023-08-05T13:03:35.079Z,3.60
2023-08-05T13:06:01.686Z,2.60
2023-08-05T13:08:28.142Z,2.42
2023-08-05T13:10:56.233Z,2.53
2023-08-05T13:13:22.728Z,2.38
2023-08-05T13:15:49.159Z,2.40
2023-08-05T13:18:15.470Z,2.20
2023-08-05T13:20:42.107Z,2.38
2023-08-05T13:23:08.459Z,2.42
2023-08-05T13:25:34.838Z,2.75
2023-08-05T13:28:01.120Z,2.85
2023-08-05T13:30:27.990Z,2.50
2023-08-05T13:32:54.343Z,2.33
2023-08-05T13:35:20.648Z,2.60
2023-08-05T13:37:47.027Z,2.60
2023-08-05T13:40:13.397Z,2.53
2023-08-05T13:42:40.007Z,2.50
2023-08-05T13:45:06.663Z,2.10
2023-08-05T13:47:32.945Z,2.58
2023-08-05T13:49:59.346Z,2.58
2023-08-05T13:52:25.611Z,2.75
2023-08-05T13:54:51.915Z,2.70
2023-08-05T13:57:18.199Z,2.70
2023-08-05T13:59:44.504Z,2.35
2023-08-05T14:02:10.877Z,2.60
2023-08-05T14:04:37.232Z,2.90
2023-08-05T14:07:03.641Z,2.75
2023-08-05T14:09:30.115Z,3.33
2023-08-05T14:11:56.400Z,3.13
2023-08-05T14:14:24.384Z,3.30
2023-08-05T14:16:50.847Z,3.13
2023-08-05T14:19:17.093Z,3.20
2023-08-05T14:21:43.364Z,3.40
2023-08-05T14:24:11.578Z,3.40
2023-08-05T14:26:37.894Z,3.67
2023-08-05T14:29:04.204Z,3.50
2023-08-05T14:31:30.572Z,3.10
2023-08-05T14:33:56.855Z,3.10
2023-08-05T14:36:26.464Z,3.33
2023-08-05T14:38:52.895Z,3.13
2023-08-05T14:41:19.499Z,3.28
2023-08-05T14:43:47.349Z,3.20
2023-08-05T14:46:13.783Z,3.05
2023-08-05T14:48:40.579Z,3.10
2023-08-05T14:51:06.937Z,3.15
2023-08-05T14:53:33.249Z,2.97
2023-08-05T14:55:59.988Z,3.60
2023-08-05T14:58:26.485Z,3.20
2023-08-05T15:00:52.780Z,3.30
2023-08-05T15:03:19.123Z,3.08
2023-08-05T15:05:45.521Z,3.50
2023-08-05T15:08:11.825Z,3.88
2023-08-05T15:10:38.160Z,3.60
2023-08-05T15:13:04.491Z,3.47
2023-08-05T15:15:30.869Z,3.38
2023-08-05T15:17:57.210Z,3.33
2023-08-05T15:20:24.071Z,3.42
2023-08-05T15:22:50.849Z,3.28
2023-08-05T15:25:17.153Z,3.28
2023-08-05T15:27:43.467Z,3.45
2023-08-05T15:30:11.583Z,3.70
2023-08-05T15:32:40.781Z,3.60
2023-08-05T15:35:09.051Z,3.78
2023-08-05T15:37:35.385Z,3.70
2023-08-05T15:40:02.151Z,3.70
2023-08-05T15:42:28.478Z,3.65
2023-08-05T15:44:54.767Z,3.65
2023-08-05T15:47:21.089Z,3.90
2023-08-05T15:49:47.431Z,3.30
2023-08-05T15:52:13.757Z,3.88
2023-08-05T15:54:40.156Z,3.45
2023-08-05T15:57:07.044Z,3.25
2023-08-05T15:59:33.398Z,3.50
2023-08-05T16:01:59.671Z,3.45
2023-08-05T16:04:26.066Z,3.17
2023-08-05T16:06:52.431Z,3.67
2023-08-05T16:09:18.710Z,3.30
2023-08-05T16:11:45.019Z,3.67
2023-08-05T16:14:11.326Z,3.75
2023-08-05T16:16:38.105Z,4.05
2023-08-05T16:19:04.448Z,4.00
2023-08-05T16:21:30.740Z,3.80
2023-08-05T16:23:58.424Z,3.58
2023-08-05T16:26:25.413Z,3.80
2023-08-05T16:28:51.946Z,3.83
2023-08-05T16:31:19.202Z,4.07
2023-08-05T16:33:46.368Z,4.47
2023-08-05T16:36:13.120Z,4.55
2023-08-05T16:38:42.045Z,4.57
2023-08-05T16:41:08.467Z,4.30
2023-08-05T16:43:34.837Z,5.05
2023-08-05T16:46:01.211Z,4.38
2023-08-05T16:48:27.527Z,3.30
2023-08-05T16:50:53.870Z,3.00
2023-08-05T16:53:20.318Z,3.00
2023-08-05T16:55:46.704Z,3.05
2023-08-05T16:58:13.052Z,2.90
2023-08-05T17:00:39.364Z,2.60
2023-08-05T17:03:05.847Z,2.97
2023-08-05T17:05:32.200Z,2.92
2023-08-05T17:07:58.637Z,2.65
2023-08-05T17:10:25.118Z,3.42
2023-08-05T17:12:51.450Z,2.78
2023-08-05T17:15:17.826Z,3.25
2023-08-05T17:17:44.158Z,3.10
2023-08-05T17:20:10.708Z,3.28
2023-08-05T17:22:37.018Z,3.40
2023-08-05T17:25:03.603Z,3.28
2023-08-05T17:27:30.121Z,4.00
2023-08-05T17:29:56.556Z,3.50
2023-08-05T17:32:22.960Z,4.38
2023-08-05T17:34:49.299Z,4.32
2023-08-05T17:37:15.643Z,3.72
2023-08-05T17:39:43.046Z,3.63
2023-08-05T17:42:09.604Z,3.58
2023-08-05T17:44:36.059Z,3.75
2023-08-05T17:47:02.504Z,3.08
2023-08-05T17:49:28.821Z,2.90
2023-08-05T17:51:55.214Z,3.15
2023-08-05T17:54:21.624Z,3.25
2023-08-05T17:56:49.362Z,3.33
2023-08-05T17:59:16.206Z,3.22
2023-08-05T18:01:42.600Z,7.20
2023-08-05T18:04:12.069Z,5.88
2023-08-05T18:06:38.581Z,4.28
2023-08-05T18:09:04.964Z,5.70
2023-08-05T18:11:31.284Z,4.00
2023-08-05T18:13:57.653Z,4.22
2023-08-05T18:16:23.981Z,4.20
2023-08-05T18:18:50.372Z,4.20
2023-08-05T18:21:16.719Z,3.88
2023-08-05T18:23:43.452Z,4.30
2023-08-05T18:26:09.820Z,3.92
2023-08-05T18:28:36.162Z,5.50
2023-08-05T18:31:02.520Z,5.38
2023-08-05T18:33:28.824Z,5.03
2023-08-05T18:35:55.191Z,5.05
2023-08-05T18:38:21.668Z,4.78
2023-08-05T18:40:47.942Z,4.38
2023-08-05T18:43:14.667Z,4.80
2023-08-05T18:45:40.996Z,5.57
2023-08-05T18:48:07.326Z,5.32
2023-08-05T18:50:33.602Z,5.15
2023-08-05T18:52:59.921Z,5.50
2023-08-05T18:55:26.266Z,5.30
2023-08-05T18:57:52.647Z,5.20
2023-08-05T19:00:19.051Z,5.07
2023-08-05T19:02:45.379Z,5.28
2023-08-05T19:05:11.935Z,4.75
2023-08-05T19:07:38.196Z,5.28
2023-08-05T19:10:05.584Z,4.97
2023-08-05T19:12:32.369Z,4.35
2023-08-05T19:14:58.743Z,4.60
2023-08-05T19:17:25.248Z,4.70
2023-08-05T19:19:51.594Z,4.53
2023-08-05T19:22:17.879Z,4.45
2023-08-05T19:24:44.160Z,4.82
2023-08-05T19:27:10.443Z,4.32
2023-08-05T19:29:36.785Z,4.97
2023-08-05T19:32:03.253Z,5.13
2023-08-05T19:34:29.570Z,4.65
2023-08-05T19:36:55.974Z,4.95
2023-08-05T19:39:22.828Z,4.05
2023-08-05T19:41:49.176Z,4.60
2023-08-05T19:44:15.491Z,4.93
2023-08-05T19:46:41.866Z,4.70
2023-08-05T19:49:08.342Z,4.40
2023-08-05T19:51:34.680Z,4.85
2023-08-05T19:54:00.988Z,4.78
2023-08-05T19:56:27.452Z,4.28
2023-08-05T19:58:53.886Z,4.20
2023-08-05T20:01:20.260Z,4.50
2023-08-05T20:03:46.715Z,4.28
2023-08-05T20:06:13.082Z,4.00
2023-08-05T20:08:39.407Z,4.55
2023-08-05T20:11:05.833Z,4.70
2023-08-05T20:13:32.192Z,5.25
2023-08-05T20:15:59.240Z,4.68
2023-08-05T20:18:25.991Z,4.00
2023-08-05T20:20:53.378Z,4.40
2023-08-05T20:23:23.349Z,4.63
2023-08-05T20:25:49.856Z,4.45
2023-08-05T20:28:16.676Z,3.97
2023-08-05T20:30:43.146Z,4.25
2023-08-05T20:33:09.518Z,5.35
2023-08-05T20:35:36.184Z,4.60
2023-08-05T20:38:02.993Z,4.18
2023-08-05T20:40:29.317Z,4.13
2023-08-05T20:42:55.778Z,4.78
2023-08-05T20:45:22.124Z,6.05
2023-08-05T20:47:49.804Z,5.10
2023-08-05T20:50:16.380Z,4.55
2023-08-05T20:52:43.460Z,4.72
2023-08-05T20:55:09.820Z,3.88
2023-08-05T20:57:36.278Z,3.70
2023-08-05T21:00:03.787Z,4.32
2023-08-05T21:02:30.192Z,4.40
2023-08-05T21:04:57.050Z,4.43
2023-08-05T21:07:23.344Z,4.35
2023-08-05T21:09:49.729Z,3.88
2023-08-05T21:12:18.638Z,4.20
2023-08-05T21:14:44.997Z,4.40
2023-08-05T21:17:13.112Z,4.28
2023-08-05T21:19:39.743Z,4.13
2023-08-05T21:22:07.153Z,4.50
2023-08-05T21:24:33.484Z,4.00
2023-08-05T21:26:59.839Z,3.60
2023-08-05T21:29:26.192Z,3.70
2023-08-05T21:31:52.762Z,3.58
2023-08-05T21:34:19.443Z,3.75
2023-08-05T21:36:45.929Z,3.70
2023-08-05T21:39:12.311Z,3.15
2023-08-05T21:41:38.670Z,3.70
2023-08-05T21:44:05.569Z,3.80
2023-08-05T21:46:32.000Z,3.63
2023-08-05T21:48:58.389Z,3.65
2023-08-05T21:51:24.808Z,4.03
2023-08-05T21:53:51.096Z,3.83
2023-08-05T21:56:17.436Z,3.40
2023-08-05T21:58:43.759Z,3.60
2023-08-05T22:01:10.033Z,3.03
2023-08-05T22:03:36.414Z,3.70
2023-08-05T22:06:06.767Z,3.25
2023-08-05T22:08:33.724Z,3.65
2023-08-05T22:11:00.152Z,3.58
2023-08-05T22:13:26.519Z,3.28
2023-08-05T22:15:52.932Z,2.95
2023-08-05T22:18:20.702Z,3.15
2023-08-05T22:20:50.938Z,3.10
2023-08-05T22:23:17.619Z,3.53
2023-08-05T22:25:44.125Z,3.00
2023-08-05T22:28:10.456Z,3.03
2023-08-05T22:30:36.784Z,2.90
2023-08-05T22:33:03.112Z,2.75
2023-08-05T22:35:29.439Z,3.00
2023-08-05T22:37:55.754Z,3.10
2023-08-05T22:40:22.110Z,3.45
2023-08-05T22:42:48.404Z,3.53
2023-08-05T22:45:14.717Z,3.05
2023-08-05T22:47:41.085Z,2.92
2023-08-05T22:50:07.581Z,3.35
2023-08-05T22:52:33.865Z,3.28
2023-08-05T22:55:00.350Z,3.70
2023-08-05T22:57:26.742Z,2.83
2023-08-05T22:59:53.217Z,3.28
2023-08-05T23:02:19.567Z,3.78
2023-08-05T23:04:45.872Z,3.28
2023-08-05T23:07:12.182Z,3.50
2023-08-05T23:09:38.485Z,3.17
2023-08-05T23:12:04.912Z,3.33
2023-08-05T23:14:31.202Z,3.58
2023-08-05T23:16:57.484Z,3.55
2023-08-05T23:19:23.961Z,3.53
2023-08-05T23:21:50.257Z,3.83
2023-08-05T23:24:16.612Z,3.55
2023-08-05T23:26:43.067Z,3.40
2023-08-05T23:29:09.552Z,3.33
2023-08-05T23:31:36.055Z,3.55
2023-08-05T23:34:02.447Z,3.80
2023-08-05T23:36:28.859Z,3.58
2023-08-05T23:38:55.275Z,4.18
2023-08-05T23:41:21.635Z,3.78
2023-08-05T23:43:48.079Z,3.38
2023-08-05T23:46:14.425Z,4.07
2023-08-05T23:48:40.847Z,3.72
2023-08-05T23:51:07.193Z,3.60
2023-08-05T23:53:33.522Z,3.78
2023-08-05T23:55:59.829Z,3.53
2023-08-05T23:58:26.134Z,3.92
